sensor_id;sensor_type;location;lat;lon;timestamp;temperature;humidity
21770;DHT22;11046;49.558;8.674;2023-07-28T00:01:46;17.30;99.90
21770;DHT22;11046;49.558;8.674;2023-07-28T00:04:47;17.30;99.90
21770;DHT22;11046;49.558;8.674;2023-07-28T00:07:47;17.40;99.90
21770;DHT22;11046;49.558;8.674;2023-07-28T00:10:48;17.40;99.90
21770;DHT22;11046;49.558;8.674;2023-07-28T00:13:49;17.40;99.90
21770;DHT22;11046;49.558;8.674;2023-07-28T00:16:49;17.40;99.90
21770;DHT22;11046;49.558;8.674;2023-07-28T00:19:50;17.40;99.90
21770;DHT22;11046;49.558;8.674;2023-07-28T00:22:50;17.40;99.90
21770;DHT22;11046;49.558;8.674;2023-07-28T00:25:51;17.40;99.90
21770;DHT22;11046;49.558;8.674;2023-07-28T00:28:52;17.40;99.90
21770;DHT22;11046;49.558;8.674;2023-07-28T00:31:52;17.40;99.90
21770;DHT22;11046;49.558;8.674;2023-07-28T00:34:53;17.40;99.90
21770;DHT22;11046;49.558;8.674;2023-07-28T00:37:53;17.40;99.90
21770;DHT22;11046;49.558;8.674;2023-07-28T00:40:54;17.40;99.90
21770;DHT22;11046;49.558;8.674;2023-07-28T00:43:55;17.40;99.90
21770;DHT22;11046;49.558;8.674;2023-07-28T00:46:55;17.40;99.90
21770;DHT22;11046;49.558;8.674;2023-07-28T00:49:56;17.50;99.90
21770;DHT22;11046;49.558;8.674;2023-07-28T00:52:56;17.40;99.90
21770;DHT22;11046;49.558;8.674;2023-07-28T00:55:57;17.40;99.90
21770;DHT22;11046;49.558;8.674;2023-07-28T00:58:58;17.40;99.90
21770;DHT22;11046;49.558;8.674;2023-07-28T01:01:58;17.30;99.90
21770;DHT22;11046;49.558;8.674;2023-07-28T01:04:59;17.40;99.90
21770;DHT22;11046;49.558;8.674;2023-07-28T01:08:06;17.40;99.90
21770;DHT22;11046;49.558;8.674;2023-07-28T01:11:08;17.40;99.90
21770;DHT22;11046;49.558;8.674;2023-07-28T01:14:09;17.40;99.90
21770;DHT22;11046;49.558;8.674;2023-07-28T01:17:10;17.40;99.90
21770;DHT22;11046;49.558;8.674;2023-07-28T01:20:11;17.40;99.90
21770;DHT22;11046;49.558;8.674;2023-07-28T01:26:36;17.40;99.90
21770;DHT22;11046;49.558;8.674;2023-07-28T01:29:37;17.30;99.90
21770;DHT22;11046;49.558;8.674;2023-07-28T01:32:38;17.30;99.90
21770;DHT22;11046;49.558;8.674;2023-07-28T01:35:39;17.30;99.90
21770;DHT22;11046;49.558;8.674;2023-07-28T01:38:40;17.30;99.90
21770;DHT22;11046;49.558;8.674;2023-07-28T01:41:40;17.30;99.90
21770;DHT22;11046;49.558;8.674;2023-07-28T01:44:44;17.30;99.90
21770;DHT22;11046;49.558;8.674;2023-07-28T01:47:44;17.20;99.90
21770;DHT22;11046;49.558;8.674;2023-07-28T01:50:45;17.20;99.90
21770;DHT22;11046;49.558;8.674;2023-07-28T01:53:45;17.20;99.90
21770;DHT22;11046;49.558;8.674;2023-07-28T01:56:46;17.20;99.90
21770;DHT22;11046;49.558;8.674;2023-07-28T01:59:47;17.20;99.90
21770;DHT22;11046;49.558;8.674;2023-07-28T02:02:48;17.20;99.90
21770;DHT22;11046;49.558;8.674;2023-07-28T02:05:49;17.20;99.90
21770;DHT22;11046;49.558;8.674;2023-07-28T02:08:50;17.20;99.90
21770;DHT22;11046;49.558;8.674;2023-07-28T02:11:50;17.30;99.90
21770;DHT22;11046;49.558;8.674;2023-07-28T02:14:51;17.40;99.90
21770;DHT22;11046;49.558;8.674;2023-07-28T02:17:51;17.40;99.90
21770;DHT22;11046;49.558;8.674;2023-07-28T02:20:52;17.40;99.90
21770;DHT22;11046;49.558;8.674;2023-07-28T02:23:53;17.40;99.90
21770;DHT22;11046;49.558;8.674;2023-07-28T02:26:53;17.40;99.90
21770;DHT22;11046;49.558;8.674;2023-07-28T02:29:55;17.30;99.90
21770;DHT22;11046;49.558;8.674;2023-07-28T02:32:55;17.30;99.90
21770;DHT22;11046;49.558;8.674;2023-07-28T02:35:56;17.30;99.90
21770;DHT22;11046;49.558;8.674;2023-07-28T02:38:57;17.30;99.90
21770;DHT22;11046;49.558;8.674;2023-07-28T02:41:57;17.30;99.90
21770;DHT22;11046;49.558;8.674;2023-07-28T02:44:58;17.30;99.90
21770;DHT22;11046;49.558;8.674;2023-07-28T02:47:59;17.30;99.90
21770;DHT22;11046;49.558;8.674;2023-07-28T02:50:59;17.30;99.90
21770;DHT22;11046;49.558;8.674;2023-07-28T02:54:00;17.30;99.90
21770;DHT22;11046;49.558;8.674;2023-07-28T02:57:01;17.30;99.90
21770;DHT22;11046;49.558;8.674;2023-07-28T03:00:02;17.30;99.90
21770;DHT22;11046;49.558;8.674;2023-07-28T03:03:10;17.30;99.90
21770;DHT22;11046;49.558;8.674;2023-07-28T03:06:11;17.30;99.90
21770;DHT22;11046;49.558;8.674;2023-07-28T03:09:12;17.30;99.90
21770;DHT22;11046;49.558;8.674;2023-07-28T03:12:20;17.30;99.90
21770;DHT22;11046;49.558;8.674;2023-07-28T03:15:22;17.30;99.90
21770;DHT22;11046;49.558;8.674;2023-07-28T03:18:22;17.30;99.90
21770;DHT22;11046;49.558;8.674;2023-07-28T03:21:23;17.30;99.90
21770;DHT22;11046;49.558;8.674;2023-07-28T03:24:24;17.30;99.90
21770;DHT22;11046;49.558;8.674;2023-07-28T03:27:24;17.20;99.90
21770;DHT22;11046;49.558;8.674;2023-07-28T03:30:25;17.20;99.90
21770;DHT22;11046;49.558;8.674;2023-07-28T03:33:26;17.20;99.90
21770;DHT22;11046;49.558;8.674;2023-07-28T03:36:27;17.30;99.90
21770;DHT22;11046;49.558;8.674;2023-07-28T03:39:27;17.30;99.90
21770;DHT22;11046;49.558;8.674;2023-07-28T03:42:28;17.30;99.90
21770;DHT22;11046;49.558;8.674;2023-07-28T03:45:29;17.30;99.90
21770;DHT22;11046;49.558;8.674;2023-07-28T03:48:29;17.30;99.90
21770;DHT22;11046;49.558;8.674;2023-07-28T03:51:30;17.30;99.90
21770;DHT22;11046;49.558;8.674;2023-07-28T03:54:31;17.30;99.90
21770;DHT22;11046;49.558;8.674;2023-07-28T03:57:31;17.30;99.90
21770;DHT22;11046;49.558;8.674;2023-07-28T04:00:33;17.30;99.90
21770;DHT22;11046;49.558;8.674;2023-07-28T04:03:33;17.30;99.90
21770;DHT22;11046;49.558;8.674;2023-07-28T04:06:47;17.30;99.90
21770;DHT22;11046;49.558;8.674;2023-07-28T04:09:50;17.30;99.90
21770;DHT22;11046;49.558;8.674;2023-07-28T04:12:51;17.30;99.90
21770;DHT22;11046;49.558;8.674;2023-07-28T04:15:52;17.20;99.90
21770;DHT22;11046;49.558;8.674;2023-07-28T04:18:52;17.30;99.90
21770;DHT22;11046;49.558;8.674;2023-07-28T04:21:53;17.30;99.90
21770;DHT22;11046;49.558;8.674;2023-07-28T04:24:54;17.30;99.90
21770;DHT22;11046;49.558;8.674;2023-07-28T04:27:55;17.30;99.90
21770;DHT22;11046;49.558;8.674;2023-07-28T04:30:56;17.30;99.90
21770;DHT22;11046;49.558;8.674;2023-07-28T04:34:17;17.30;99.90
21770;DHT22;11046;49.558;8.674;2023-07-28T04:37:36;17.30;99.90
21770;DHT22;11046;49.558;8.674;2023-07-28T04:40:37;17.40;99.90
21770;DHT22;11046;49.558;8.674;2023-07-28T04:43:37;17.40;99.90
21770;DHT22;11046;49.558;8.674;2023-07-28T04:46:38;17.40;99.90
21770;DHT22;11046;49.558;8.674;2023-07-28T04:49:43;17.40;99.90
21770;DHT22;11046;49.558;8.674;2023-07-28T04:52:44;17.40;99.90
21770;DHT22;11046;49.558;8.674;2023-07-28T04:56:03;17.40;99.90
21770;DHT22;11046;49.558;8.674;2023-07-28T04:59:04;17.40;99.90
21770;DHT22;11046;49.558;8.674;2023-07-28T05:02:06;17.40;99.90
21770;DHT22;11046;49.558;8.674;2023-07-28T05:05:07;17.40;99.90
21770;DHT22;11046;49.558;8.674;2023-07-28T05:08:08;17.40;99.90
21770;DHT22;11046;49.558;8.674;2023-07-28T05:11:08;17.30;99.90
21770;DHT22;11046;49.558;8.674;2023-07-28T05:14:09;17.30;99.90
21770;DHT22;11046;49.558;8.674;2023-07-28T05:17:10;17.30;99.90
21770;DHT22;11046;49.558;8.674;2023-07-28T05:20:17;17.30;99.90
21770;DHT22;11046;49.558;8.674;2023-07-28T05:23:28;17.30;99.90
21770;DHT22;11046;49.558;8.674;2023-07-28T05:26:28;17.30;99.90
21770;DHT22;11046;49.558;8.674;2023-07-28T05:29:29;17.30;99.90
21770;DHT22;11046;49.558;8.674;2023-07-28T05:32:36;17.30;99.90
21770;DHT22;11046;49.558;8.674;2023-07-28T05:35:42;17.30;99.90
21770;DHT22;11046;49.558;8.674;2023-07-28T05:38:43;17.40;99.90
21770;DHT22;11046;49.558;8.674;2023-07-28T05:41:44;17.50;99.90
21770;DHT22;11046;49.558;8.674;2023-07-28T05:44:46;17.50;99.90
21770;DHT22;11046;49.558;8.674;2023-07-28T05:47:47;17.50;99.90
21770;DHT22;11046;49.558;8.674;2023-07-28T05:50:47;17.60;99.90
21770;DHT22;11046;49.558;8.674;2023-07-28T05:53:49;17.60;99.90
21770;DHT22;11046;49.558;8.674;2023-07-28T05:56:52;17.60;99.90
21770;DHT22;11046;49.558;8.674;2023-07-28T05:59:53;17.70;99.90
21770;DHT22;11046;49.558;8.674;2023-07-28T06:02:53;17.70;99.90
21770;DHT22;11046;49.558;8.674;2023-07-28T06:06:12;17.70;99.90
21770;DHT22;11046;49.558;8.674;2023-07-28T06:09:13;17.70;99.90
21770;DHT22;11046;49.558;8.674;2023-07-28T06:12:15;17.80;99.90
21770;DHT22;11046;49.558;8.674;2023-07-28T06:15:16;17.80;99.90
21770;DHT22;11046;49.558;8.674;2023-07-28T06:18:17;17.90;99.90
21770;DHT22;11046;49.558;8.674;2023-07-28T06:21:21;18.00;99.90
21770;DHT22;11046;49.558;8.674;2023-07-28T06:24:22;18.10;99.90
21770;DHT22;11046;49.558;8.674;2023-07-28T06:27:23;18.20;99.90
21770;DHT22;11046;49.558;8.674;2023-07-28T06:30:24;18.20;99.90
21770;DHT22;11046;49.558;8.674;2023-07-28T06:33:25;18.30;99.90
21770;DHT22;11046;49.558;8.674;2023-07-28T06:36:26;18.30;99.90
21770;DHT22;11046;49.558;8.674;2023-07-28T06:39:27;18.20;99.90
21770;DHT22;11046;49.558;8.674;2023-07-28T06:42:30;18.20;99.90
21770;DHT22;11046;49.558;8.674;2023-07-28T06:45:31;18.20;99.90
21770;DHT22;11046;49.558;8.674;2023-07-28T06:48:31;18.10;99.90
21770;DHT22;11046;49.558;8.674;2023-07-28T06:51:32;18.10;99.90
21770;DHT22;11046;49.558;8.674;2023-07-28T06:54:32;18.10;99.90
21770;DHT22;11046;49.558;8.674;2023-07-28T06:57:33;18.10;99.90
21770;DHT22;11046;49.558;8.674;2023-07-28T07:00:35;18.10;99.90
21770;DHT22;11046;49.558;8.674;2023-07-28T07:03:36;18.20;99.90
21770;DHT22;11046;49.558;8.674;2023-07-28T07:06:37;18.20;99.90
21770;DHT22;11046;49.558;8.674;2023-07-28T07:09:38;18.20;99.90
21770;DHT22;11046;49.558;8.674;2023-07-28T07:12:38;18.20;99.90
21770;DHT22;11046;49.558;8.674;2023-07-28T07:15:39;18.20;99.90
21770;DHT22;11046;49.558;8.674;2023-07-28T07:18:40;18.10;99.90
21770;DHT22;11046;49.558;8.674;2023-07-28T07:21:41;18.10;99.90
21770;DHT22;11046;49.558;8.674;2023-07-28T07:24:42;18.10;99.90
21770;DHT22;11046;49.558;8.674;2023-07-28T07:27:43;18.10;99.90
21770;DHT22;11046;49.558;8.674;2023-07-28T07:30:43;18.10;99.90
21770;DHT22;11046;49.558;8.674;2023-07-28T07:33:44;18.10;99.90
21770;DHT22;11046;49.558;8.674;2023-07-28T07:36:45;18.10;99.90
21770;DHT22;11046;49.558;8.674;2023-07-28T07:39:46;18.10;99.90
21770;DHT22;11046;49.558;8.674;2023-07-28T07:42:48;18.20;99.90
21770;DHT22;11046;49.558;8.674;2023-07-28T07:45:49;18.20;99.90
21770;DHT22;11046;49.558;8.674;2023-07-28T07:48:51;18.30;99.90
21770;DHT22;11046;49.558;8.674;2023-07-28T07:51:52;18.50;99.90
21770;DHT22;11046;49.558;8.674;2023-07-28T07:54:52;18.60;99.90
21770;DHT22;11046;49.558;8.674;2023-07-28T07:57:53;18.80;99.90
21770;DHT22;11046;49.558;8.674;2023-07-28T08:00:54;18.80;99.90
21770;DHT22;11046;49.558;8.674;2023-07-28T08:03:55;19.00;99.90
21770;DHT22;11046;49.558;8.674;2023-07-28T08:06:56;19.00;99.90
21770;DHT22;11046;49.558;8.674;2023-07-28T08:09:56;19.10;99.90
21770;DHT22;11046;49.558;8.674;2023-07-28T08:12:57;19.20;99.90
21770;DHT22;11046;49.558;8.674;2023-07-28T08:15:58;19.20;99.90
21770;DHT22;11046;49.558;8.674;2023-07-28T08:18:58;19.30;99.90
21770;DHT22;11046;49.558;8.674;2023-07-28T08:21:59;19.40;99.90
21770;DHT22;11046;49.558;8.674;2023-07-28T08:24:59;19.60;99.90
21770;DHT22;11046;49.558;8.674;2023-07-28T08:28:00;19.80;99.90
21770;DHT22;11046;49.558;8.674;2023-07-28T08:31:01;19.90;99.90
21770;DHT22;11046;49.558;8.674;2023-07-28T08:34:02;20.10;99.90
21770;DHT22;11046;49.558;8.674;2023-07-28T08:37:03;20.20;99.90
21770;DHT22;11046;49.558;8.674;2023-07-28T08:40:04;20.30;99.90
21770;DHT22;11046;49.558;8.674;2023-07-28T08:43:05;20.30;99.90
21770;DHT22;11046;49.558;8.674;2023-07-28T08:46:06;20.40;99.90
21770;DHT22;11046;49.558;8.674;2023-07-28T08:49:06;20.40;99.90
21770;DHT22;11046;49.558;8.674;2023-07-28T08:52:07;20.80;99.90
21770;DHT22;11046;49.558;8.674;2023-07-28T08:55:08;21.00;99.90
21770;DHT22;11046;49.558;8.674;2023-07-28T08:58:21;21.00;99.90
21770;DHT22;11046;49.558;8.674;2023-07-28T09:01:23;20.90;99.90
21770;DHT22;11046;49.558;8.674;2023-07-28T09:04:24;20.90;99.90
21770;DHT22;11046;49.558;8.674;2023-07-28T09:07:24;20.80;99.90
21770;DHT22;11046;49.558;8.674;2023-07-28T09:10:25;21.00;99.90
21770;DHT22;11046;49.558;8.674;2023-07-28T09:13:26;21.30;99.90
21770;DHT22;11046;49.558;8.674;2023-07-28T09:16:35;21.50;99.90
21770;DHT22;11046;49.558;8.674;2023-07-28T09:19:53;21.50;99.90
21770;DHT22;11046;49.558;8.674;2023-07-28T09:22:54;21.50;99.90
21770;DHT22;11046;49.558;8.674;2023-07-28T09:25:59;21.40;99.90
21770;DHT22;11046;49.558;8.674;2023-07-28T09:29:16;21.20;99.90
21770;DHT22;11046;49.558;8.674;2023-07-28T09:32:27;21.00;99.90
21770;DHT22;11046;49.558;8.674;2023-07-28T09:35:29;20.80;99.90
21770;DHT22;11046;49.558;8.674;2023-07-28T09:38:30;20.60;99.90
21770;DHT22;11046;49.558;8.674;2023-07-28T09:41:31;20.40;99.90
21770;DHT22;11046;49.558;8.674;2023-07-28T09:44:33;20.30;99.90
21770;DHT22;11046;49.558;8.674;2023-07-28T09:47:34;20.10;99.90
21770;DHT22;11046;49.558;8.674;2023-07-28T09:50:37;19.90;99.90
21770;DHT22;11046;49.558;8.674;2023-07-28T09:53:49;19.80;99.90
21770;DHT22;11046;49.558;8.674;2023-07-28T09:56:56;19.70;99.90
21770;DHT22;11046;49.558;8.674;2023-07-28T09:59:59;19.70;99.90
21770;DHT22;11046;49.558;8.674;2023-07-28T10:03:02;19.80;99.90
21770;DHT22;11046;49.558;8.674;2023-07-28T10:06:03;19.90;99.90
21770;DHT22;11046;49.558;8.674;2023-07-28T10:09:04;19.80;99.90
21770;DHT22;11046;49.558;8.674;2023-07-28T10:12:06;19.90;99.90
21770;DHT22;11046;49.558;8.674;2023-07-28T10:15:13;20.00;99.90
21770;DHT22;11046;49.558;8.674;2023-07-28T10:18:20;20.00;99.90
21770;DHT22;11046;49.558;8.674;2023-07-28T10:21:21;20.10;99.90
21770;DHT22;11046;49.558;8.674;2023-07-28T10:24:54;20.20;99.90
21770;DHT22;11046;49.558;8.674;2023-07-28T10:27:58;20.40;99.90
21770;DHT22;11046;49.558;8.674;2023-07-28T10:31:00;20.70;99.90
21770;DHT22;11046;49.558;8.674;2023-07-28T10:34:00;21.00;99.90
21770;DHT22;11046;49.558;8.674;2023-07-28T10:37:01;21.20;99.90
21770;DHT22;11046;49.558;8.674;2023-07-28T10:40:30;21.20;99.90
21770;DHT22;11046;49.558;8.674;2023-07-28T10:43:31;21.20;99.90
21770;DHT22;11046;49.558;8.674;2023-07-28T10:46:35;21.20;99.90
21770;DHT22;11046;49.558;8.674;2023-07-28T10:49:37;21.10;99.90
21770;DHT22;11046;49.558;8.674;2023-07-28T10:52:45;21.00;99.90
21770;DHT22;11046;49.558;8.674;2023-07-28T10:55:46;21.00;99.90
21770;DHT22;11046;49.558;8.674;2023-07-28T10:58:46;21.00;99.90
21770;DHT22;11046;49.558;8.674;2023-07-28T11:01:47;21.00;99.90
21770;DHT22;11046;49.558;8.674;2023-07-28T11:04:47;21.00;99.90
21770;DHT22;11046;49.558;8.674;2023-07-28T11:07:49;21.10;99.90
21770;DHT22;11046;49.558;8.674;2023-07-28T11:10:50;21.30;99.90
21770;DHT22;11046;49.558;8.674;2023-07-28T11:13:51;21.40;99.90
21770;DHT22;11046;49.558;8.674;2023-07-28T11:16:53;21.30;99.90
21770;DHT22;11046;49.558;8.674;2023-07-28T11:19:53;21.40;99.90
21770;DHT22;11046;49.558;8.674;2023-07-28T11:22:57;21.50;99.90
21770;DHT22;11046;49.558;8.674;2023-07-28T11:25:58;21.60;99.90
21770;DHT22;11046;49.558;8.674;2023-07-28T11:28:59;21.70;99.90
21770;DHT22;11046;49.558;8.674;2023-07-28T11:32:00;21.60;99.90
21770;DHT22;11046;49.558;8.674;2023-07-28T11:38:06;21.70;99.90
21770;DHT22;11046;49.558;8.674;2023-07-28T11:41:08;21.70;99.90
21770;DHT22;11046;49.558;8.674;2023-07-28T11:44:09;21.80;99.90
21770;DHT22;11046;49.558;8.674;2023-07-28T11:47:17;21.80;99.90
21770;DHT22;11046;49.558;8.674;2023-07-28T11:50:25;21.80;99.90
21770;DHT22;11046;49.558;8.674;2023-07-28T11:53:26;21.80;99.90
21770;DHT22;11046;49.558;8.674;2023-07-28T11:56:29;21.80;99.90
21770;DHT22;11046;49.558;8.674;2023-07-28T11:59:29;21.80;99.90
21770;DHT22;11046;49.558;8.674;2023-07-28T12:02:32;21.80;99.90
21770;DHT22;11046;49.558;8.674;2023-07-28T12:05:34;21.80;99.90
21770;DHT22;11046;49.558;8.674;2023-07-28T12:08:35;21.80;99.90
21770;DHT22;11046;49.558;8.674;2023-07-28T12:11:36;21.80;99.90
21770;DHT22;11046;49.558;8.674;2023-07-28T12:14:37;21.70;99.90
21770;DHT22;11046;49.558;8.674;2023-07-28T12:17:38;21.70;99.90
21770;DHT22;11046;49.558;8.674;2023-07-28T12:20:45;21.60;99.90
21770;DHT22;11046;49.558;8.674;2023-07-28T12:23:50;21.50;99.90
21770;DHT22;11046;49.558;8.674;2023-07-28T12:26:50;21.40;99.90
21770;DHT22;11046;49.558;8.674;2023-07-28T12:29:51;21.40;99.90
21770;DHT22;11046;49.558;8.674;2023-07-28T12:32:52;21.20;99.90
21770;DHT22;11046;49.558;8.674;2023-07-28T12:35:52;21.30;99.90
21770;DHT22;11046;49.558;8.674;2023-07-28T12:38:53;21.20;99.90
21770;DHT22;11046;49.558;8.674;2023-07-28T12:41:54;21.30;99.90
21770;DHT22;11046;49.558;8.674;2023-07-28T12:44:55;21.20;99.90
21770;DHT22;11046;49.558;8.674;2023-07-28T12:47:55;21.20;99.90
21770;DHT22;11046;49.558;8.674;2023-07-28T12:50:56;21.10;99.90
21770;DHT22;11046;49.558;8.674;2023-07-28T12:53:57;21.10;99.90
21770;DHT22;11046;49.558;8.674;2023-07-28T12:56:57;21.00;99.90
21770;DHT22;11046;49.558;8.674;2023-07-28T12:59:58;20.90;99.90
21770;DHT22;11046;49.558;8.674;2023-07-28T13:02:58;21.00;99.90
21770;DHT22;11046;49.558;8.674;2023-07-28T13:05:59;21.00;99.90
21770;DHT22;11046;49.558;8.674;2023-07-28T13:09:00;21.00;99.90
21770;DHT22;11046;49.558;8.674;2023-07-28T13:12:00;21.00;99.90
21770;DHT22;11046;49.558;8.674;2023-07-28T13:15:01;21.00;99.90
21770;DHT22;11046;49.558;8.674;2023-07-28T13:18:02;21.00;99.90
21770;DHT22;11046;49.558;8.674;2023-07-28T13:21:03;21.00;99.90
21770;DHT22;11046;49.558;8.674;2023-07-28T13:24:03;21.00;99.90
21770;DHT22;11046;49.558;8.674;2023-07-28T13:27:05;21.00;99.90
21770;DHT22;11046;49.558;8.674;2023-07-28T13:30:06;20.90;99.90
21770;DHT22;11046;49.558;8.674;2023-07-28T13:33:07;20.80;99.90
21770;DHT22;11046;49.558;8.674;2023-07-28T13:36:08;20.70;99.90
21770;DHT22;11046;49.558;8.674;2023-07-28T13:39:08;20.60;99.90
21770;DHT22;11046;49.558;8.674;2023-07-28T13:42:09;20.50;99.90
21770;DHT22;11046;49.558;8.674;2023-07-28T13:45:12;20.50;99.90
21770;DHT22;11046;49.558;8.674;2023-07-28T13:48:12;20.50;99.90
21770;DHT22;11046;49.558;8.674;2023-07-28T13:51:13;20.50;99.90
21770;DHT22;11046;49.558;8.674;2023-07-28T13:54:14;20.50;99.90
21770;DHT22;11046;49.558;8.674;2023-07-28T13:57:14;20.50;99.90
21770;DHT22;11046;49.558;8.674;2023-07-28T14:00:15;20.40;99.90
21770;DHT22;11046;49.558;8.674;2023-07-28T14:03:16;20.30;99.90
21770;DHT22;11046;49.558;8.674;2023-07-28T14:06:16;20.30;99.90
21770;DHT22;11046;49.558;8.674;2023-07-28T14:09:17;20.30;99.90
21770;DHT22;11046;49.558;8.674;2023-07-28T14:12:18;20.20;99.90
21770;DHT22;11046;49.558;8.674;2023-07-28T14:15:18;20.40;99.90
21770;DHT22;11046;49.558;8.674;2023-07-28T14:18:19;20.30;99.90
21770;DHT22;11046;49.558;8.674;2023-07-28T14:21:20;20.30;99.90
21770;DHT22;11046;49.558;8.674;2023-07-28T14:24:20;20.30;99.90
21770;DHT22;11046;49.558;8.674;2023-07-28T14:27:21;20.10;99.90
21770;DHT22;11046;49.558;8.674;2023-07-28T14:30:21;20.10;99.90
21770;DHT22;11046;49.558;8.674;2023-07-28T14:33:22;20.00;99.90
21770;DHT22;11046;49.558;8.674;2023-07-28T14:36:23;20.10;99.90
21770;DHT22;11046;49.558;8.674;2023-07-28T14:39:23;20.10;99.90
21770;DHT22;11046;49.558;8.674;2023-07-28T14:42:24;20.00;99.90
21770;DHT22;11046;49.558;8.674;2023-07-28T14:45:24;19.90;99.90
21770;DHT22;11046;49.558;8.674;2023-07-28T14:48:25;19.90;99.90
21770;DHT22;11046;49.558;8.674;2023-07-28T14:51:26;20.00;99.90
21770;DHT22;11046;49.558;8.674;2023-07-28T14:54:26;19.90;99.90
21770;DHT22;11046;49.558;8.674;2023-07-28T14:57:27;19.80;99.90
21770;DHT22;11046;49.558;8.674;2023-07-28T15:00:27;19.80;99.90
21770;DHT22;11046;49.558;8.674;2023-07-28T15:03:29;19.80;99.90
21770;DHT22;11046;49.558;8.674;2023-07-28T15:06:32;19.80;99.90
21770;DHT22;11046;49.558;8.674;2023-07-28T15:09:32;19.80;99.90
21770;DHT22;11046;49.558;8.674;2023-07-28T15:12:33;19.70;99.90
21770;DHT22;11046;49.558;8.674;2023-07-28T15:15:33;19.70;99.90
21770;DHT22;11046;49.558;8.674;2023-07-28T15:18:34;19.70;99.90
21770;DHT22;11046;49.558;8.674;2023-07-28T15:21:35;19.70;99.90
21770;DHT22;11046;49.558;8.674;2023-07-28T15:24:35;19.70;99.90
21770;DHT22;11046;49.558;8.674;2023-07-28T15:27:40;19.80;99.90
21770;DHT22;11046;49.558;8.674;2023-07-28T15:30:43;19.80;99.90
21770;DHT22;11046;49.558;8.674;2023-07-28T15:33:47;19.80;99.90
21770;DHT22;11046;49.558;8.674;2023-07-28T15:36:48;19.80;99.90
21770;DHT22;11046;49.558;8.674;2023-07-28T15:39:49;19.80;99.90
21770;DHT22;11046;49.558;8.674;2023-07-28T15:42:49;19.70;99.90
21770;DHT22;11046;49.558;8.674;2023-07-28T15:45:50;19.70;99.90
21770;DHT22;11046;49.558;8.674;2023-07-28T15:48:54;19.60;99.90
21770;DHT22;11046;49.558;8.674;2023-07-28T15:51:55;19.60;99.90
21770;DHT22;11046;49.558;8.674;2023-07-28T15:54:55;19.60;99.90
21770;DHT22;11046;49.558;8.674;2023-07-28T15:57:56;19.60;99.90
21770;DHT22;11046;49.558;8.674;2023-07-28T16:00:57;19.70;99.90
21770;DHT22;11046;49.558;8.674;2023-07-28T16:03:57;19.70;99.90
21770;DHT22;11046;49.558;8.674;2023-07-28T16:06:58;19.70;99.90
21770;DHT22;11046;49.558;8.674;2023-07-28T16:09:59;19.80;99.90
21770;DHT22;11046;49.558;8.674;2023-07-28T16:13:00;19.80;99.90
21770;DHT22;11046;49.558;8.674;2023-07-28T16:16:01;19.80;99.90
21770;DHT22;11046;49.558;8.674;2023-07-28T16:19:02;19.80;99.90
21770;DHT22;11046;49.558;8.674;2023-07-28T16:22:03;19.80;99.90
21770;DHT22;11046;49.558;8.674;2023-07-28T16:25:04;19.80;99.90
21770;DHT22;11046;49.558;8.674;2023-07-28T16:28:05;19.80;99.90
21770;DHT22;11046;49.558;8.674;2023-07-28T16:31:06;19.70;99.90
21770;DHT22;11046;49.558;8.674;2023-07-28T16:34:08;19.80;99.90
21770;DHT22;11046;49.558;8.674;2023-07-28T16:37:09;19.80;99.90
21770;DHT22;11046;49.558;8.674;2023-07-28T16:40:10;19.70;99.90
21770;DHT22;11046;49.558;8.674;2023-07-28T16:43:10;19.80;99.90
21770;DHT22;11046;49.558;8.674;2023-07-28T16:46:11;19.80;99.90
21770;DHT22;11046;49.558;8.674;2023-07-28T16:49:12;19.80;99.90
21770;DHT22;11046;49.558;8.674;2023-07-28T16:52:13;19.80;99.90
21770;DHT22;11046;49.558;8.674;2023-07-28T16:55:13;19.90;99.90
21770;DHT22;11046;49.558;8.674;2023-07-28T16:58:15;19.90;99.90
21770;DHT22;11046;49.558;8.674;2023-07-28T17:01:16;19.80;99.90
21770;DHT22;11046;49.558;8.674;2023-07-28T17:04:17;19.80;99.90
21770;DHT22;11046;49.558;8.674;2023-07-28T17:07:18;19.90;99.90
21770;DHT22;11046;49.558;8.674;2023-07-28T17:10:19;19.90;99.90
21770;DHT22;11046;49.558;8.674;2023-07-28T17:13:19;19.90;99.90
21770;DHT22;11046;49.558;8.674;2023-07-28T17:16:21;19.90;99.90
21770;DHT22;11046;49.558;8.674;2023-07-28T17:19:22;19.90;99.90
21770;DHT22;11046;49.558;8.674;2023-07-28T17:22:23;19.70;99.90
21770;DHT22;11046;49.558;8.674;2023-07-28T17:25:23;19.60;99.90
21770;DHT22;11046;49.558;8.674;2023-07-28T17:28:24;19.50;99.90
21770;DHT22;11046;49.558;8.674;2023-07-28T17:31:25;19.50;99.90
21770;DHT22;11046;49.558;8.674;2023-07-28T17:34:25;19.50;99.90
21770;DHT22;11046;49.558;8.674;2023-07-28T17:37:26;19.50;99.90
21770;DHT22;11046;49.558;8.674;2023-07-28T17:40:27;19.40;99.90
21770;DHT22;11046;49.558;8.674;2023-07-28T17:43:28;19.50;99.90
21770;DHT22;11046;49.558;8.674;2023-07-28T17:46:28;19.50;99.90
21770;DHT22;11046;49.558;8.674;2023-07-28T17:49:29;19.50;99.90
21770;DHT22;11046;49.558;8.674;2023-07-28T17:52:29;19.50;99.90
21770;DHT22;11046;49.558;8.674;2023-07-28T17:55:30;19.50;99.90
21770;DHT22;11046;49.558;8.674;2023-07-28T17:58:31;19.50;99.90
21770;DHT22;11046;49.558;8.674;2023-07-28T18:01:31;19.50;99.90
21770;DHT22;11046;49.558;8.674;2023-07-28T18:04:32;19.50;99.90
21770;DHT22;11046;49.558;8.674;2023-07-28T18:07:33;19.50;99.90
21770;DHT22;11046;49.558;8.674;2023-07-28T18:10:33;19.50;99.90
21770;DHT22;11046;49.558;8.674;2023-07-28T18:13:34;19.50;99.90
21770;DHT22;11046;49.558;8.674;2023-07-28T18:16:35;19.40;99.90
21770;DHT22;11046;49.558;8.674;2023-07-28T18:19:35;19.40;99.90
21770;DHT22;11046;49.558;8.674;2023-07-28T18:22:36;19.40;99.90
21770;DHT22;11046;49.558;8.674;2023-07-28T18:25:36;19.40;99.90
21770;DHT22;11046;49.558;8.674;2023-07-28T18:28:37;19.40;99.90
21770;DHT22;11046;49.558;8.674;2023-07-28T18:31:38;19.40;99.90
21770;DHT22;11046;49.558;8.674;2023-07-28T18:34:39;19.40;99.90
21770;DHT22;11046;49.558;8.674;2023-07-28T18:37:39;19.40;99.90
21770;DHT22;11046;49.558;8.674;2023-07-28T18:40:40;19.40;99.90
21770;DHT22;11046;49.558;8.674;2023-07-28T18:43:41;19.40;99.90
21770;DHT22;11046;49.558;8.674;2023-07-28T18:46:41;19.30;99.90
21770;DHT22;11046;49.558;8.674;2023-07-28T18:49:42;19.30;99.90
21770;DHT22;11046;49.558;8.674;2023-07-28T18:52:43;19.30;99.90
21770;DHT22;11046;49.558;8.674;2023-07-28T18:55:44;19.30;99.90
21770;DHT22;11046;49.558;8.674;2023-07-28T18:58:45;19.20;99.90
21770;DHT22;11046;49.558;8.674;2023-07-28T19:01:45;19.10;99.90
21770;DHT22;11046;49.558;8.674;2023-07-28T19:04:46;19.00;99.90
21770;DHT22;11046;49.558;8.674;2023-07-28T19:07:49;19.00;99.90
21770;DHT22;11046;49.558;8.674;2023-07-28T19:10:49;19.00;99.90
21770;DHT22;11046;49.558;8.674;2023-07-28T19:13:50;19.00;99.90